createdAt,value
2019-04-30T00:00:39.954Z,84
2019-04-30T00:01:39.984Z,84
2019-04-30T00:02:40.166Z,84
2019-04-30T00:03:40.041Z,84
2019-04-30T00:04:40.450Z,84
2019-04-30T00:05:40.057Z,84
2019-04-30T00:06:40.100Z,84
2019-04-30T00:07:40.124Z,84
2019-04-30T00:08:40.149Z,84
2019-04-30T00:09:40.140Z,84
2019-04-30T00:10:41.437Z,85
2019-04-30T00:11:40.191Z,85
2019-04-30T00:12:40.212Z,86
2019-04-30T00:13:40.222Z,84
2019-04-30T00:14:41.289Z,84
2019-04-30T00:15:40.274Z,83
2019-04-30T00:16:40.290Z,83
2019-04-30T00:17:40.295Z,83
2019-04-30T00:18:53.224Z,83
2019-04-30T00:19:40.340Z,83
2019-04-30T00:20:40.509Z,83
2019-04-30T00:21:40.360Z,83
2019-04-30T00:22:46.949Z,84
2019-04-30T00:23:40.383Z,84
2019-04-30T00:24:44.729Z,84
2019-04-30T00:25:40.379Z,84
2019-04-30T00:26:44.914Z,84
2019-04-30T00:27:40.416Z,85
2019-04-30T00:28:44.285Z,85
2019-04-30T00:29:40.427Z,85
2019-04-30T00:30:43.863Z,85
2019-04-30T00:31:40.417Z,85
2019-04-30T00:32:43.541Z,85
2019-04-30T00:33:40.436Z,85
2019-04-30T00:34:40.462Z,85
2019-04-30T00:35:40.451Z,85
2019-04-30T00:36:40.453Z,85
2019-04-30T00:37:40.478Z,85
2019-04-30T00:38:40.457Z,84
2019-04-30T00:39:44.068Z,84
2019-04-30T00:40:40.458Z,84
2019-04-30T00:41:43.974Z,84
2019-04-30T00:43:00.088Z,84
2019-04-30T00:43:46.327Z,84
2019-04-30T00:44:40.670Z,84
2019-04-30T00:45:44.639Z,84
2019-04-30T00:46:40.813Z,84
2019-04-30T00:47:44.362Z,84
2019-04-30T00:48:40.919Z,84
2019-04-30T00:49:40.967Z,84
2019-04-30T00:50:41.042Z,84
2019-04-30T00:51:41.097Z,84
2019-04-30T00:52:41.151Z,84
2019-04-30T00:53:43.761Z,85
2019-04-30T00:54:41.301Z,85
2019-04-30T00:55:44.831Z,85
2019-04-30T00:56:41.361Z,85
2019-04-30T00:57:43.527Z,84
2019-04-30T00:58:41.385Z,84
2019-04-30T00:59:44.504Z,84
2019-04-30T01:00:41.509Z,84
2019-04-30T01:01:43.467Z,84
2019-04-30T01:02:41.538Z,84
2019-04-30T01:03:44.290Z,84
2019-04-30T01:04:41.602Z,84
2019-04-30T01:05:44.403Z,84
2019-04-30T01:06:41.631Z,84
2019-04-30T01:07:48.495Z,84
2019-04-30T01:08:41.732Z,84
2019-04-30T01:09:44.450Z,84
2019-04-30T01:10:41.811Z,84
2019-04-30T01:11:44.671Z,84
2019-04-30T01:12:47.004Z,84
2019-04-30T01:13:49.865Z,84
2019-04-30T01:14:41.957Z,84
2019-04-30T01:15:43.859Z,84
2019-04-30T01:16:42.009Z,84
2019-04-30T01:17:45.270Z,84
2019-04-30T01:18:42.040Z,84
2019-04-30T01:19:45.861Z,84
2019-04-30T01:20:42.151Z,84
2019-04-30T01:21:46.902Z,85
2019-04-30T01:22:42.167Z,85
2019-04-30T01:23:48.908Z,85
2019-04-30T01:24:42.212Z,85
2019-04-30T01:25:43.083Z,84
2019-04-30T01:26:42.335Z,84
2019-04-30T01:27:45.524Z,84
2019-04-30T01:28:42.378Z,84
2019-04-30T01:29:44.327Z,84
2019-04-30T01:30:42.417Z,84
2019-04-30T01:31:42.427Z,84
2019-04-30T01:32:42.485Z,84
2019-04-30T01:33:42.493Z,84
2019-04-30T01:34:44.116Z,84
2019-04-30T01:35:42.523Z,84
2019-04-30T01:36:43.399Z,83
2019-04-30T01:37:42.637Z,84
2019-04-30T01:38:44.733Z,85
2019-04-30T01:39:42.624Z,85
2019-04-30T01:40:46.958Z,85
2019-04-30T01:41:42.690Z,85
2019-04-30T01:42:47.873Z,85
2019-04-30T01:43:42.725Z,85
2019-04-30T01:44:43.386Z,85
2019-04-30T01:45:42.762Z,85
2019-04-30T01:46:43.168Z,85
2019-04-30T01:47:42.863Z,85
2019-04-30T01:48:43.521Z,85
2019-04-30T01:49:44.806Z,85
2019-04-30T01:50:42.938Z,85
2019-04-30T01:51:42.959Z,85
2019-04-30T01:52:42.989Z,85
2019-04-30T01:53:45.232Z,85
2019-04-30T01:54:42.992Z,85
2019-04-30T01:55:43.021Z,85
2019-04-30T01:56:43.000Z,85
2019-04-30T01:57:43.030Z,85
2019-04-30T01:58:43.060Z,85
2019-04-30T01:59:43.071Z,85
2019-04-30T02:00:43.087Z,85
2019-04-30T02:01:43.124Z,85
2019-04-30T02:02:43.134Z,85
2019-04-30T02:03:43.197Z,85
2019-04-30T02:04:43.171Z,85
2019-04-30T02:05:43.200Z,84
2019-04-30T02:06:43.243Z,85
2019-04-30T02:07:45.857Z,85
2019-04-30T02:08:43.262Z,85
2019-04-30T02:09:43.303Z,84
2019-04-30T02:10:43.297Z,85
2019-04-30T02:11:43.344Z,85
2019-04-30T02:12:43.379Z,85
2019-04-30T02:13:43.355Z,84
2019-04-30T02:14:43.376Z,84
2019-04-30T02:15:43.387Z,84
2019-04-30T02:16:43.417Z,84
2019-04-30T02:17:43.416Z,84
2019-04-30T02:18:43.522Z,84
2019-04-30T02:19:54.043Z,84
2019-04-30T02:20:43.448Z,84
2019-04-30T02:21:43.555Z,84
2019-04-30T02:22:43.490Z,84
2019-04-30T02:23:43.489Z,85
2019-04-30T02:24:43.471Z,85
2019-04-30T02:25:46.003Z,85
2019-04-30T02:26:43.500Z,85
2019-04-30T02:27:43.505Z,85
2019-04-30T02:28:43.489Z,85
2019-04-30T02:29:43.753Z,85
2019-04-30T02:30:43.535Z,85
2019-04-30T02:31:43.583Z,85
2019-04-30T02:32:43.668Z,85
2019-04-30T02:33:43.729Z,85
2019-04-30T02:34:44.291Z,85
2019-04-30T02:35:43.805Z,85
2019-04-30T02:36:43.863Z,86
2019-04-30T02:37:43.926Z,86
2019-04-30T02:38:43.992Z,86
2019-04-30T02:39:44.074Z,86
2019-04-30T02:40:44.059Z,86
2019-04-30T02:41:44.154Z,86
2019-04-30T02:42:44.223Z,86
2019-04-30T02:43:44.260Z,86
2019-04-30T02:44:44.322Z,86
2019-04-30T02:45:44.373Z,87
2019-04-30T02:46:44.434Z,87
2019-04-30T02:47:44.485Z,87
2019-04-30T02:48:44.490Z,87
2019-04-30T02:49:44.562Z,87
2019-04-30T02:50:44.810Z,87
2019-04-30T02:51:44.631Z,88
2019-04-30T02:52:44.651Z,88
2019-04-30T02:53:44.656Z,88
2019-04-30T02:54:44.653Z,87
2019-04-30T02:55:44.726Z,87
2019-04-30T02:56:44.788Z,87
2019-04-30T02:57:44.838Z,86
2019-04-30T02:58:44.904Z,86
2019-04-30T02:59:44.981Z,86
2019-04-30T03:00:44.953Z,86
2019-04-30T03:01:45.011Z,87
2019-04-30T03:02:45.034Z,86
2019-04-30T03:03:45.377Z,86
2019-04-30T03:04:45.133Z,86
2019-04-30T03:05:45.296Z,86
2019-04-30T03:06:45.250Z,85
2019-04-30T03:07:45.302Z,85
2019-04-30T03:08:45.330Z,84
2019-04-30T03:09:45.379Z,84
2019-04-30T03:10:45.435Z,84
2019-04-30T03:11:45.496Z,84
2019-04-30T03:12:45.510Z,84
2019-04-30T03:13:45.547Z,85
2019-04-30T03:14:45.614Z,84
2019-04-30T03:15:45.663Z,84
2019-04-30T03:16:45.665Z,84
2019-04-30T03:17:45.732Z,84
2019-04-30T03:18:45.752Z,84
2019-04-30T03:19:45.808Z,84
2019-04-30T03:20:45.838Z,84
2019-04-30T03:21:45.875Z,85
2019-04-30T03:22:45.922Z,85
2019-04-30T03:23:45.935Z,85
2019-04-30T03:24:45.992Z,85
2019-04-30T03:25:45.999Z,85
2019-04-30T03:26:46.050Z,85
2019-04-30T03:27:46.113Z,85
2019-04-30T03:28:46.095Z,85
2019-04-30T03:29:50.206Z,85
2019-04-30T03:30:46.170Z,85
2019-04-30T03:31:46.157Z,85
2019-04-30T03:32:52.037Z,85
2019-04-30T03:33:46.186Z,84
2019-04-30T03:34:46.229Z,85
2019-04-30T03:35:47.551Z,85
2019-04-30T03:36:46.280Z,85
2019-04-30T03:37:46.395Z,85
2019-04-30T03:38:46.331Z,85
2019-04-30T03:39:46.357Z,85
2019-04-30T03:40:46.390Z,85
2019-04-30T03:41:46.419Z,85
2019-04-30T03:42:49.276Z,85
2019-04-30T03:43:46.435Z,85
2019-04-30T03:44:49.347Z,85
2019-04-30T03:45:46.490Z,85
2019-04-30T03:46:49.588Z,85
2019-04-30T03:47:46.528Z,85
2019-04-30T03:48:46.603Z,86
2019-04-30T03:49:46.579Z,86
2019-04-30T03:50:53.104Z,87
2019-04-30T03:51:46.586Z,87
2019-04-30T03:52:46.611Z,87
2019-04-30T03:53:49.566Z,87
2019-04-30T03:54:49.272Z,87
2019-04-30T03:55:46.623Z,87
2019-04-30T03:56:49.794Z,87
2019-04-30T03:57:46.675Z,87
2019-04-30T03:58:46.683Z,87
2019-04-30T03:59:46.710Z,87
2019-04-30T04:00:46.819Z,87
2019-04-30T04:01:46.719Z,87
2019-04-30T04:02:46.733Z,87
2019-04-30T04:03:46.729Z,87
2019-04-30T04:04:49.412Z,87
2019-04-30T04:05:46.756Z,88
2019-04-30T04:06:49.008Z,88
2019-04-30T04:07:46.758Z,88
2019-04-30T04:08:49.004Z,88
2019-04-30T04:09:46.777Z,88
2019-04-30T04:10:46.792Z,89
2019-04-30T04:11:46.760Z,88
2019-04-30T04:12:49.591Z,88
2019-04-30T04:13:49.406Z,88
2019-04-30T04:14:46.882Z,89
2019-04-30T04:15:49.717Z,89
2019-04-30T04:16:47.024Z,89
2019-04-30T04:17:47.028Z,89
2019-04-30T04:18:49.784Z,89
2019-04-30T04:19:49.319Z,89
2019-04-30T04:20:50.158Z,89
2019-04-30T04:21:47.270Z,89
2019-04-30T04:22:49.441Z,89
2019-04-30T04:23:49.263Z,89
2019-04-30T04:24:50.046Z,89
2019-04-30T04:25:49.785Z,89
2019-04-30T04:26:49.877Z,89
2019-04-30T04:27:47.523Z,89
2019-04-30T04:28:49.577Z,89
2019-04-30T04:29:50.543Z,90
2019-04-30T04:30:50.263Z,90
2019-04-30T04:31:50.023Z,90
2019-04-30T04:32:50.009Z,89
2019-04-30T04:33:49.523Z,89
2019-04-30T04:34:50.030Z,89
2019-04-30T04:35:49.750Z,89
2019-04-30T04:36:50.434Z,89
2019-04-30T04:37:49.364Z,89
2019-04-30T04:38:50.390Z,89
2019-04-30T04:39:49.988Z,89
2019-04-30T04:40:50.149Z,89
2019-04-30T04:41:50.205Z,88
2019-04-30T04:42:49.213Z,88
2019-04-30T04:43:50.285Z,88
2019-04-30T04:44:50.073Z,88
2019-04-30T04:45:49.713Z,89
2019-04-30T04:46:50.266Z,89
2019-04-30T04:47:50.310Z,89
2019-04-30T04:48:49.312Z,89
2019-04-30T04:49:50.666Z,88
2019-04-30T04:50:50.029Z,88
2019-04-30T04:51:50.706Z,89
2019-04-30T04:52:49.520Z,89
2019-04-30T04:53:49.983Z,89
2019-04-30T04:54:50.532Z,89
2019-04-30T04:55:49.849Z,88
2019-04-30T04:56:50.374Z,89
2019-04-30T04:57:50.001Z,89
2019-04-30T04:58:50.136Z,89
2019-04-30T04:59:49.834Z,89
2019-04-30T05:00:49.426Z,89
2019-04-30T05:01:48.995Z,88
2019-04-30T05:02:49.729Z,88
2019-04-30T05:03:49.057Z,89
2019-04-30T05:04:49.162Z,89
2019-04-30T05:05:49.890Z,89
2019-04-30T05:06:49.752Z,88
2019-04-30T05:07:48.899Z,88
2019-04-30T05:08:49.295Z,88
2019-04-30T05:09:49.041Z,89
2019-04-30T05:10:49.463Z,88
2019-04-30T05:11:49.079Z,88
2019-04-30T05:12:50.916Z,89
2019-04-30T05:13:49.183Z,89
2019-04-30T05:14:49.212Z,90
2019-04-30T05:15:51.502Z,90
2019-04-30T05:16:49.290Z,90
2019-04-30T05:17:49.563Z,90
2019-04-30T05:18:49.396Z,90
2019-04-30T05:19:49.367Z,90
2019-04-30T05:20:49.387Z,89
2019-04-30T05:21:51.661Z,89
2019-04-30T05:22:49.423Z,88
2019-04-30T05:23:49.425Z,88
2019-04-30T05:24:49.447Z,88
2019-04-30T05:25:49.482Z,89
2019-04-30T05:26:49.514Z,89
2019-04-30T05:27:49.541Z,89
2019-04-30T05:28:52.741Z,89
2019-04-30T05:29:49.929Z,89
2019-04-30T05:30:49.589Z,89
2019-04-30T05:31:49.619Z,88
2019-04-30T05:32:50.821Z,88
2019-04-30T05:33:49.648Z,88
2019-04-30T05:34:49.805Z,89
2019-04-30T05:35:49.713Z,89
2019-04-30T05:36:49.719Z,89
2019-04-30T05:37:49.768Z,89
2019-04-30T05:38:49.767Z,89
2019-04-30T05:39:49.793Z,89
2019-04-30T05:40:49.813Z,89
2019-04-30T05:41:49.834Z,88
2019-04-30T05:42:49.859Z,89
2019-04-30T05:43:49.874Z,89
2019-04-30T05:44:49.925Z,89
2019-04-30T05:45:49.919Z,88
2019-04-30T05:46:49.978Z,88
2019-04-30T05:47:50.513Z,88
2019-04-30T05:48:49.973Z,88
2019-04-30T05:49:49.974Z,88
2019-04-30T05:50:51.707Z,88
2019-04-30T05:51:54.982Z,88
2019-04-30T05:52:50.015Z,88
2019-04-30T05:53:50.051Z,88
2019-04-30T05:54:50.048Z,88
2019-04-30T05:55:50.058Z,88
2019-04-30T05:56:50.110Z,88
2019-04-30T05:57:55.736Z,88
2019-04-30T05:58:50.084Z,88
2019-04-30T05:59:50.127Z,87
2019-04-30T06:00:50.140Z,87
2019-04-30T06:01:50.733Z,87
2019-04-30T06:03:05.640Z,88
2019-04-30T06:03:50.136Z,88
2019-04-30T06:04:50.143Z,87
2019-04-30T06:05:50.149Z,87
2019-04-30T06:06:50.254Z,87
2019-04-30T06:07:51.924Z,87
2019-04-30T06:08:50.160Z,87
2019-04-30T06:09:50.177Z,87
2019-04-30T06:10:51.746Z,87
2019-04-30T06:11:50.171Z,86
2019-04-30T06:12:50.178Z,86
2019-04-30T06:13:50.248Z,87
2019-04-30T06:14:51.812Z,88
2019-04-30T06:15:50.338Z,88
2019-04-30T06:16:51.714Z,88
2019-04-30T06:17:59.512Z,88
2019-04-30T06:18:50.543Z,88
2019-04-30T06:19:51.396Z,88
2019-04-30T06:20:50.631Z,88
2019-04-30T06:21:50.672Z,88
2019-04-30T06:22:52.146Z,87
2019-04-30T06:23:50.734Z,87
2019-04-30T06:24:50.805Z,86
2019-04-30T06:25:56.980Z,86
2019-04-30T06:26:53.201Z,86
2019-04-30T06:27:50.897Z,88
2019-04-30T06:28:50.938Z,88
2019-04-30T06:29:52.078Z,88
2019-04-30T06:30:51.069Z,88
2019-04-30T06:31:51.151Z,88
2019-04-30T06:32:51.187Z,89
2019-04-30T06:33:51.250Z,88
2019-04-30T06:34:51.242Z,88
2019-04-30T06:35:51.292Z,88
2019-04-30T06:36:53.782Z,88
2019-04-30T06:37:51.407Z,88
2019-04-30T06:38:51.397Z,87
2019-04-30T06:39:51.424Z,83
2019-04-30T06:40:51.492Z,81
2019-04-30T06:41:51.555Z,79
2019-04-30T06:42:51.594Z,77
2019-04-30T06:43:51.625Z,76
2019-04-30T06:44:51.680Z,77
2019-04-30T06:45:51.667Z,79
2019-04-30T06:46:51.674Z,80
2019-04-30T06:47:51.712Z,78
2019-04-30T06:48:51.765Z,77
2019-04-30T06:49:51.801Z,79
2019-04-30T06:50:51.827Z,79
2019-04-30T06:51:51.875Z,76
2019-04-30T06:52:56.720Z,75
2019-04-30T06:53:51.952Z,77
2019-04-30T06:54:52.012Z,71
2019-04-30T06:55:52.064Z,73
2019-04-30T06:56:52.110Z,76
2019-04-30T06:57:52.106Z,77
2019-04-30T06:58:52.626Z,76
2019-04-30T06:59:52.104Z,75
2019-04-30T07:00:52.184Z,75
2019-04-30T07:01:52.210Z,73
2019-04-30T07:02:52.207Z,73
2019-04-30T07:03:52.249Z,73
2019-04-30T07:04:52.257Z,73
2019-04-30T07:05:52.252Z,74
2019-04-30T07:06:52.283Z,75
2019-04-30T07:07:53.255Z,76
2019-04-30T07:08:55.800Z,71
2019-04-30T07:09:56.869Z,69
2019-04-30T07:10:55.502Z,70
2019-04-30T07:11:52.494Z,74
2019-04-30T07:12:52.510Z,72
2019-04-30T07:13:52.611Z,68
2019-04-30T07:14:52.692Z,69
2019-04-30T07:15:52.619Z,71
2019-04-30T07:16:52.632Z,70
2019-04-30T07:17:52.667Z,72
2019-04-30T07:18:52.733Z,72
2019-04-30T07:19:56.479Z,69
2019-04-30T07:20:52.767Z,71
2019-04-30T07:21:52.801Z,70
2019-04-30T07:23:00.112Z,70
2019-04-30T07:23:52.831Z,69
2019-04-30T07:24:52.883Z,72
2019-04-30T07:25:52.882Z,71
2019-04-30T07:26:54.601Z,69
2019-04-30T07:27:52.943Z,67
2019-04-30T07:28:55.191Z,65
2019-04-30T07:29:52.964Z,66
2019-04-30T07:31:07.524Z,67
2019-04-30T07:31:53.004Z,64
2019-04-30T07:32:53.019Z,65
2019-04-30T07:33:54.028Z,66
2019-04-30T07:34:53.024Z,66
2019-04-30T07:35:53.093Z,65
2019-04-30T07:37:10.660Z,65
2019-04-30T07:37:54.456Z,70
2019-04-30T07:38:56.318Z,68
2019-04-30T07:39:53.095Z,65
2019-04-30T07:40:53.115Z,64
2019-04-30T07:41:53.134Z,67
2019-04-30T07:42:53.185Z,64
2019-04-30T07:43:53.157Z,65
2019-04-30T07:44:53.155Z,63
2019-04-30T07:45:53.215Z,64
2019-04-30T07:46:53.170Z,65
2019-04-30T07:47:53.165Z,64
2019-04-30T07:48:53.169Z,64
2019-04-30T07:49:55.854Z,69
2019-04-30T07:50:53.219Z,64
2019-04-30T07:51:53.715Z,64
2019-04-30T07:53:02.375Z,61
2019-04-30T07:53:53.188Z,59
2019-04-30T07:54:53.189Z,65
2019-04-30T07:55:53.197Z,61
2019-04-30T07:56:53.222Z,63
2019-04-30T07:57:53.200Z,64
2019-04-30T07:58:53.204Z,64
2019-04-30T07:59:53.242Z,66
2019-04-30T08:00:56.101Z,68
2019-04-30T08:02:03.923Z,64
2019-04-30T08:02:53.412Z,65
2019-04-30T08:03:53.710Z,60
2019-04-30T08:04:53.493Z,60
2019-04-30T08:05:55.767Z,62
2019-04-30T08:06:53.619Z,59
2019-04-30T08:07:53.677Z,59
2019-04-30T08:08:57.401Z,61
2019-04-30T08:09:53.674Z,57
2019-04-30T08:10:53.730Z,58
2019-04-30T08:11:53.798Z,58
2019-04-30T08:12:54.089Z,63
2019-04-30T08:13:53.861Z,57
2019-04-30T08:14:53.922Z,59
2019-04-30T08:15:53.967Z,63
2019-04-30T08:16:54.051Z,61
2019-04-30T08:18:02.545Z,61
2019-04-30T08:18:54.104Z,60
2019-04-30T08:19:54.172Z,59
2019-04-30T08:20:54.218Z,59
2019-04-30T08:21:54.263Z,57
2019-04-30T08:22:54.342Z,57
2019-04-30T08:23:54.362Z,62
2019-04-30T08:24:54.391Z,62
2019-04-30T08:25:54.526Z,56
2019-04-30T08:26:54.471Z,55
2019-04-30T08:27:54.467Z,58
2019-04-30T08:28:54.510Z,56
2019-04-30T08:29:54.641Z,57
2019-04-30T08:30:54.621Z,54
2019-04-30T08:31:54.660Z,55
2019-04-30T08:32:54.784Z,57
2019-04-30T08:33:54.694Z,58
2019-04-30T08:34:54.703Z,58
2019-04-30T08:35:54.772Z,59
2019-04-30T08:36:54.923Z,57
2019-04-30T08:37:54.855Z,58
2019-04-30T08:38:55.048Z,58
2019-04-30T08:39:54.951Z,57
2019-04-30T08:40:58.024Z,59
2019-04-30T08:41:55.019Z,60
2019-04-30T08:42:55.088Z,60
2019-04-30T08:43:55.116Z,60
2019-04-30T08:44:55.182Z,61
2019-04-30T08:45:55.179Z,58
2019-04-30T08:46:55.227Z,57
2019-04-30T08:47:55.282Z,58
2019-04-30T08:48:55.319Z,61
2019-04-30T08:49:55.411Z,57
2019-04-30T08:50:55.374Z,58
2019-04-30T08:51:55.435Z,56
2019-04-30T08:52:55.411Z,57
2019-04-30T08:53:55.440Z,59
2019-04-30T08:54:55.481Z,52
2019-04-30T08:55:55.525Z,55
2019-04-30T08:56:55.586Z,55
2019-04-30T08:58:07.435Z,55
2019-04-30T08:58:55.587Z,55
2019-04-30T08:59:55.631Z,55
2019-04-30T09:00:55.680Z,55
2019-04-30T09:01:55.688Z,54
2019-04-30T09:02:55.698Z,53
2019-04-30T09:03:55.761Z,51
2019-04-30T09:04:55.791Z,52
2019-04-30T09:05:55.817Z,51
2019-04-30T09:06:55.834Z,50
2019-04-30T09:07:55.887Z,54
2019-04-30T09:08:55.927Z,51
2019-04-30T09:09:55.943Z,54
2019-04-30T09:10:55.950Z,50
2019-04-30T09:11:56.045Z,51
2019-04-30T09:12:56.029Z,51
2019-04-30T09:13:56.043Z,51
2019-04-30T09:14:56.063Z,51
2019-04-30T09:15:56.108Z,52
2019-04-30T09:16:56.127Z,52
2019-04-30T09:18:01.536Z,50
2019-04-30T09:18:56.185Z,49
2019-04-30T09:19:56.208Z,52
2019-04-30T09:21:04.066Z,53
2019-04-30T09:21:56.257Z,51
2019-04-30T09:22:56.270Z,51
2019-04-30T09:23:56.298Z,48
2019-04-30T09:24:56.310Z,49
2019-04-30T09:25:58.391Z,53
2019-04-30T09:26:56.342Z,52
2019-04-30T09:27:56.377Z,52
2019-04-30T09:28:56.404Z,53
2019-04-30T09:29:56.395Z,50
2019-04-30T09:30:58.442Z,52
2019-04-30T09:31:56.437Z,50
2019-04-30T09:32:56.451Z,52
2019-04-30T09:33:57.951Z,53
2019-04-30T09:34:58.523Z,50
2019-04-30T09:35:56.555Z,50
2019-04-30T09:36:56.480Z,48
2019-04-30T09:37:59.546Z,51
2019-04-30T09:38:58.713Z,54
2019-04-30T09:39:56.503Z,52
2019-04-30T09:40:56.510Z,51
2019-04-30T09:41:56.529Z,50
2019-04-30T09:42:56.524Z,49
2019-04-30T09:43:56.521Z,49
2019-04-30T09:44:57.729Z,48
2019-04-30T09:45:56.544Z,48
2019-04-30T09:46:56.543Z,49
2019-04-30T09:47:56.567Z,49
2019-04-30T09:48:56.632Z,48
2019-04-30T09:49:56.886Z,48
2019-04-30T09:50:57.119Z,47
2019-04-30T09:51:57.315Z,44
2019-04-30T09:52:56.800Z,46
2019-04-30T09:54:00.356Z,46
2019-04-30T09:54:56.925Z,47
2019-04-30T09:55:56.939Z,48
2019-04-30T09:56:58.857Z,48
2019-04-30T09:57:58.670Z,46
2019-04-30T09:58:59.030Z,46
2019-04-30T09:59:57.069Z,46
2019-04-30T10:00:59.184Z,48
2019-04-30T10:01:57.121Z,47
2019-04-30T10:02:59.280Z,47
2019-04-30T10:03:59.400Z,50
2019-04-30T10:04:57.561Z,47
2019-04-30T10:05:58.994Z,48
2019-04-30T10:06:59.412Z,48
2019-04-30T10:07:59.134Z,46
2019-04-30T10:08:59.406Z,49
2019-04-30T10:09:59.036Z,47
2019-04-30T10:10:58.769Z,47
2019-04-30T10:11:59.426Z,50
2019-04-30T10:12:59.222Z,50
2019-04-30T10:13:57.554Z,48
2019-04-30T10:14:59.238Z,47
2019-04-30T10:15:58.531Z,43
2019-04-30T10:16:59.511Z,43
2019-04-30T10:17:57.740Z,46
2019-04-30T10:18:59.185Z,48
2019-04-30T10:19:57.814Z,49
2019-04-30T10:20:58.843Z,47
2019-04-30T10:21:58.952Z,49
2019-04-30T10:22:59.606Z,47
2019-04-30T10:24:10.417Z,45
2019-04-30T10:24:59.631Z,47
2019-04-30T10:25:58.042Z,47
2019-04-30T10:26:58.060Z,47
2019-04-30T10:27:59.733Z,47
2019-04-30T10:28:58.095Z,48
2019-04-30T10:29:59.342Z,46
2019-04-30T10:30:58.174Z,47
2019-04-30T10:31:58.746Z,47
2019-04-30T10:32:59.551Z,47
2019-04-30T10:33:58.641Z,48
2019-04-30T10:34:58.314Z,48
2019-04-30T10:35:59.452Z,45
2019-04-30T10:36:59.256Z,45
2019-04-30T10:37:59.535Z,47
2019-04-30T10:38:59.483Z,45
2019-04-30T10:39:59.725Z,46
2019-04-30T10:40:58.755Z,47
2019-04-30T10:41:58.532Z,45
2019-04-30T10:42:58.724Z,44
2019-04-30T10:43:59.076Z,46
2019-04-30T10:45:00.223Z,45
2019-04-30T10:45:58.658Z,47
2019-04-30T10:46:59.308Z,44
2019-04-30T10:47:59.260Z,46
2019-04-30T10:48:58.725Z,46
2019-04-30T10:49:58.752Z,47
2019-04-30T10:50:59.309Z,46
2019-04-30T10:51:59.358Z,48
2019-04-30T10:52:59.131Z,46
2019-04-30T10:53:59.886Z,48
2019-04-30T10:54:59.511Z,50
2019-04-30T10:55:59.444Z,49
2019-04-30T10:56:59.200Z,49
2019-04-30T10:57:59.313Z,47
2019-04-30T10:58:58.930Z,48
2019-04-30T10:59:58.922Z,49
2019-04-30T11:00:59.481Z,47
2019-04-30T11:01:59.224Z,47
2019-04-30T11:02:59.309Z,47
2019-04-30T11:03:59.027Z,49
2019-04-30T11:04:59.025Z,48
2019-04-30T11:05:59.060Z,47
2019-04-30T11:07:00.482Z,48
2019-04-30T11:07:59.438Z,47
2019-04-30T11:08:59.144Z,49
2019-04-30T11:09:59.142Z,48
2019-04-30T11:10:59.173Z,45
2019-04-30T11:11:59.429Z,44
2019-04-30T11:12:59.286Z,46
2019-04-30T11:13:59.214Z,44
2019-04-30T11:14:59.231Z,47
2019-04-30T11:16:11.665Z,46
2019-04-30T11:16:59.832Z,42
2019-04-30T11:17:59.752Z,42
2019-04-30T11:18:59.440Z,44
2019-04-30T11:19:59.508Z,44
2019-04-30T11:20:59.735Z,45
2019-04-30T11:21:59.465Z,45
2019-04-30T11:22:59.408Z,45
2019-04-30T11:23:59.613Z,46
2019-04-30T11:25:06.632Z,45
2019-04-30T11:25:59.967Z,43
2019-04-30T11:27:00.327Z,43
2019-04-30T11:27:59.789Z,44
2019-04-30T11:28:59.455Z,44
2019-04-30T11:30:03.029Z,44
2019-04-30T11:30:59.598Z,42
2019-04-30T11:31:59.601Z,44
2019-04-30T11:32:59.666Z,43
2019-04-30T11:33:59.502Z,43
2019-04-30T11:34:59.561Z,42
2019-04-30T11:36:02.864Z,43
2019-04-30T11:36:59.679Z,46
2019-04-30T11:37:59.739Z,42
2019-04-30T11:38:59.767Z,43
2019-04-30T11:39:59.823Z,42
2019-04-30T11:40:59.897Z,42
2019-04-30T11:41:59.933Z,43
2019-04-30T11:42:59.952Z,43
2019-04-30T11:44:00.035Z,41
2019-04-30T11:45:00.042Z,42
2019-04-30T11:46:00.289Z,43
2019-04-30T11:47:00.083Z,43
2019-04-30T11:48:00.586Z,44
2019-04-30T11:49:00.204Z,43
2019-04-30T11:50:00.176Z,42
2019-04-30T11:51:00.182Z,41
2019-04-30T11:52:00.290Z,40
2019-04-30T11:53:14.106Z,42
2019-04-30T11:54:00.326Z,43
2019-04-30T11:55:00.336Z,41
2019-04-30T11:56:00.315Z,40
2019-04-30T11:57:00.361Z,43
2019-04-30T11:58:00.398Z,42
2019-04-30T11:59:00.497Z,42
2019-04-30T12:00:00.475Z,43
2019-04-30T12:01:00.532Z,43
2019-04-30T12:02:00.592Z,44
2019-04-30T12:03:00.600Z,43
2019-04-30T12:04:00.676Z,43
2019-04-30T12:05:00.721Z,43
2019-04-30T12:06:00.759Z,45
2019-04-30T12:07:00.806Z,45
2019-04-30T12:08:00.868Z,42
2019-04-30T12:09:00.913Z,43
2019-04-30T12:10:00.957Z,43
2019-04-30T12:11:00.994Z,43
2019-04-30T12:12:01.041Z,43
2019-04-30T12:13:03.573Z,44
2019-04-30T12:14:01.133Z,44
2019-04-30T12:15:02.791Z,45
2019-04-30T12:16:01.166Z,44
2019-04-30T12:17:01.209Z,46
2019-04-30T12:18:01.267Z,47
2019-04-30T12:19:01.277Z,46
2019-04-30T12:20:01.316Z,47
2019-04-30T12:21:01.344Z,47
2019-04-30T12:22:01.400Z,48
2019-04-30T12:23:01.458Z,45
2019-04-30T12:24:01.503Z,45
2019-04-30T12:25:03.140Z,46
2019-04-30T12:26:02.900Z,45
2019-04-30T12:27:01.596Z,46
2019-04-30T12:28:01.630Z,46
2019-04-30T12:29:01.664Z,44
2019-04-30T12:30:01.679Z,45
2019-04-30T12:31:01.706Z,44
2019-04-30T12:32:01.754Z,44
2019-04-30T12:33:01.764Z,44
2019-04-30T12:34:01.792Z,45
2019-04-30T12:35:01.846Z,41
2019-04-30T12:36:01.861Z,43
2019-04-30T12:37:01.905Z,44
2019-04-30T12:38:01.986Z,42
2019-04-30T12:39:01.969Z,42
2019-04-30T12:40:01.985Z,43
2019-04-30T12:41:02.015Z,42
2019-04-30T12:42:02.263Z,42
2019-04-30T12:43:02.074Z,42
2019-04-30T12:44:02.109Z,43
2019-04-30T12:45:02.138Z,41
2019-04-30T12:46:05.346Z,42
2019-04-30T12:47:04.652Z,43
2019-04-30T12:48:02.194Z,40
2019-04-30T12:49:02.251Z,44
2019-04-30T12:50:02.242Z,43
2019-04-30T12:51:02.255Z,42
2019-04-30T12:52:02.304Z,42
2019-04-30T12:53:02.326Z,44
2019-04-30T12:54:02.364Z,41
2019-04-30T12:55:14.399Z,40
2019-04-30T12:56:02.491Z,42
2019-04-30T12:57:02.385Z,41
2019-04-30T12:58:02.393Z,39
2019-04-30T12:59:02.428Z,40
2019-04-30T13:00:02.451Z,41
2019-04-30T13:01:02.447Z,40
2019-04-30T13:02:02.481Z,40
2019-04-30T13:03:02.500Z,43
2019-04-30T13:04:02.515Z,39
2019-04-30T13:05:02.515Z,40
2019-04-30T13:06:03.325Z,42
2019-04-30T13:07:03.212Z,40
2019-04-30T13:08:02.968Z,39
2019-04-30T13:09:02.892Z,38
2019-04-30T13:10:03.238Z,37
2019-04-30T13:11:02.933Z,36
2019-04-30T13:12:03.070Z,37
2019-04-30T13:13:02.978Z,37
2019-04-30T13:14:03.030Z,38
2019-04-30T13:15:02.588Z,41
2019-04-30T13:16:02.588Z,38
2019-04-30T13:17:02.592Z,37
2019-04-30T13:18:02.587Z,37
2019-04-30T13:19:02.628Z,39
2019-04-30T13:20:02.705Z,37
2019-04-30T13:21:02.829Z,36
2019-04-30T13:22:02.782Z,37
2019-04-30T13:23:02.850Z,38
2019-04-30T13:24:02.907Z,39
2019-04-30T13:25:02.972Z,38
2019-04-30T13:26:02.942Z,38
2019-04-30T13:27:02.979Z,39
2019-04-30T13:28:04.167Z,38
2019-04-30T13:29:03.089Z,36
2019-04-30T13:30:03.344Z,38
2019-04-30T13:31:03.282Z,38
2019-04-30T13:32:03.235Z,36
2019-04-30T13:33:03.405Z,38
2019-04-30T13:34:03.337Z,37
2019-04-30T13:35:03.353Z,37
2019-04-30T13:36:03.399Z,38
2019-04-30T13:37:03.458Z,37
2019-04-30T13:38:03.459Z,38
2019-04-30T13:39:03.485Z,38
2019-04-30T13:40:03.501Z,40
2019-04-30T13:41:03.534Z,40
2019-04-30T13:42:14.973Z,38
2019-04-30T13:43:03.638Z,38
2019-04-30T13:44:03.678Z,38
2019-04-30T13:45:03.706Z,37
2019-04-30T13:46:03.713Z,40
2019-04-30T13:47:03.760Z,39
2019-04-30T13:48:03.838Z,38
2019-04-30T13:49:03.886Z,36
2019-04-30T13:50:03.897Z,37
2019-04-30T13:51:03.973Z,38
2019-04-30T13:52:04.006Z,38
2019-04-30T13:53:04.008Z,37
2019-04-30T13:54:04.113Z,36
2019-04-30T13:55:04.227Z,37
2019-04-30T13:56:04.130Z,37
2019-04-30T13:57:04.148Z,37
2019-04-30T13:58:04.285Z,37
2019-04-30T13:59:04.271Z,37
2019-04-30T14:00:04.355Z,38
2019-04-30T14:01:04.431Z,37
2019-04-30T14:02:04.413Z,38
2019-04-30T14:03:04.492Z,38
2019-04-30T14:04:04.446Z,37
2019-04-30T14:05:04.534Z,38
2019-04-30T14:06:04.537Z,36
2019-04-30T14:07:04.589Z,36
2019-04-30T14:08:04.586Z,36
2019-04-30T14:09:04.639Z,35
2019-04-30T14:10:04.682Z,37
2019-04-30T14:11:04.839Z,37
2019-04-30T14:12:04.770Z,36
2019-04-30T14:13:04.809Z,36
2019-04-30T14:14:04.857Z,36
2019-04-30T14:15:04.829Z,36
2019-04-30T14:16:04.846Z,35